Time;durP1;ratioP1;P1;durP2;ratioP2;P2;SDS_P1;SDS_P2;PMS_P1;PMS_P2;Temp;Humidity;BMP_temperature;BMP_pressure;BME280_temperature;BME280_humidity;BME280_pressure;Samples;Min_cycle;Max_cycle;Signal;HPM_P1;HPM_P2
2022/10/03 00:00:15;;;;;;;;;;;12.20;99.90;;;;;;5053481;28;19952;-83
2022/10/03 00:02:47;;;;;;;;;;;12.20;99.90;;;;;;5053746;28;19915;-85
2022/10/03 00:05:16;;;;;;;;;;;12.30;99.90;;;;;;5055468;28;19904;-84
2022/10/03 00:08:05;;;;;;;;;;;12.40;99.90;;;;;;5054117;28;20003;-85
2022/10/03 00:10:30;;;;;;;;;;;12.40;99.90;;;;;;5023524;28;19936;-85
2022/10/03 00:12:59;;;;;;;;;;;12.50;99.90;;;;;;5051298;28;19943;-85
2022/10/03 00:15:43;;;;;;;;;;;12.40;99.90;;;;;;5053266;28;19915;-85
2022/10/03 00:18:28;;;;;;;;;;;12.50;99.90;;;;;;5052995;28;19904;-84
2022/10/03 00:20:54;;;;;;;;;;;12.50;99.90;;;;;;5053549;28;19908;-84
2022/10/03 00:23:20;;;;;;;;;;;12.50;99.90;;;;;;5053571;28;19956;-84
2022/10/03 00:25:45;;;;;;;;;;;12.50;99.90;;;;;;5053614;28;19905;-86
2022/10/03 00:28:14;;;;;;;;;;;12.50;99.90;;;;;;5053791;28;19908;-87
2022/10/03 00:31:00;;;;;;;;;;;12.50;99.90;;;;;;5054033;28;20388;-87
2022/10/03 00:33:25;;;;;;;;;;;12.50;99.90;;;;;;5023404;28;20031;-85
2022/10/03 00:36:00;;;;;;;;;;;12.50;99.90;;;;;;5054103;28;19951;-87
2022/10/03 00:38:45;;;;;;;;;;;12.50;99.90;;;;;;5053553;28;19999;-83
2022/10/03 00:41:16;;;;;;;;;;;12.50;99.90;;;;;;5055179;28;19911;-88
2022/10/03 00:44:00;;;;;;;;;;;12.50;99.90;;;;;;5052336;28;20007;-88
2022/10/03 00:46:32;;;;;;;;;;;12.50;99.90;;;;;;5054542;28;19905;-88
2022/10/03 00:49:16;;;;;;;;;;;12.40;99.90;;;;;;5054020;28;19951;-88
2022/10/03 00:52:14;;;;;;;;;;;12.40;99.90;;;;;;5053974;28;19916;-88
2022/10/03 00:54:43;;;;;;;;;;;12.30;99.90;;;;;;5020957;28;19912;-88
2022/10/03 00:57:33;;;;;;;;;;;12.30;99.90;;;;;;5053286;28;19911;-86
2022/10/03 01:00:16;;;;;;;;;;;12.30;99.90;;;;;;5052191;28;19905;-85
2022/10/03 01:02:42;;;;;;;;;;;12.30;99.90;;;;;;5052620;28;19905;-85
2022/10/03 01:05:14;;;;;;;;;;;12.30;99.90;;;;;;5052870;28;19992;-84
2022/10/03 01:07:46;;;;;;;;;;;12.20;99.90;;;;;;5052542;28;19916;-84
2022/10/03 01:10:22;;;;;;;;;;;12.20;99.90;;;;;;5052923;28;19909;-86
2022/10/03 01:12:47;;;;;;;;;;;12.10;99.90;;;;;;5053720;28;20396;-86
2022/10/03 01:15:17;;;;;;;;;;;12.00;99.90;;;;;;5053872;28;19931;-86
2022/10/03 01:17:47;;;;;;;;;;;12.00;99.90;;;;;;5052579;28;20007;-86
2022/10/03 01:20:26;;;;;;;;;;;12.00;99.90;;;;;;5052242;28;19935;-86
2022/10/03 01:23:13;;;;;;;;;;;11.90;99.90;;;;;;5052867;28;19913;-85
2022/10/03 01:25:50;;;;;;;;;;;11.90;99.90;;;;;;5052491;28;19905;-85
2022/10/03 01:31:18;;;;;;;;;;;11.80;99.90;;;;;;5054144;28;20375;-84
2022/10/03 01:33:47;;;;;;;;;;;11.70;99.90;;;;;;5052087;28;20007;-84
2022/10/03 01:36:25;;;;;;;;;;;11.70;99.90;;;;;;5052392;28;20357;-85
2022/10/03 01:38:57;;;;;;;;;;;11.70;99.90;;;;;;5051790;28;19912;-85
2022/10/03 01:41:34;;;;;;;;;;;11.70;99.90;;;;;;5052264;28;19909;-85
2022/10/03 01:44:11;;;;;;;;;;;11.70;99.90;;;;;;5052217;28;20016;-85
2022/10/03 01:46:38;;;;;;;;;;;11.70;99.90;;;;;;5051708;28;19954;-84
2022/10/03 01:49:03;;;;;;;;;;;11.60;99.90;;;;;;5051839;28;19905;-85
2022/10/03 01:51:39;;;;;;;;;;;11.60;99.90;;;;;;5052421;28;20270;-86
2022/10/03 01:54:05;;;;;;;;;;;11.60;99.90;;;;;;5053224;28;19916;-85
2022/10/03 01:56:40;;;;;;;;;;;11.60;99.90;;;;;;5052382;28;19904;-85
2022/10/03 01:59:12;;;;;;;;;;;11.60;99.90;;;;;;5052272;28;19909;-85
2022/10/03 02:01:43;;;;;;;;;;;11.50;99.90;;;;;;5052353;28;19962;-85
2022/10/03 02:04:19;;;;;;;;;;;11.50;99.90;;;;;;5052135;28;19995;-86
2022/10/03 02:06:48;;;;;;;;;;;11.40;99.90;;;;;;5051645;28;19998;-85
2022/10/03 02:09:22;;;;;;;;;;;11.40;99.90;;;;;;5051406;28;19944;-85
2022/10/03 02:11:49;;;;;;;;;;;11.40;99.90;;;;;;5053158;28;20007;-85
2022/10/03 02:14:33;;;;;;;;;;;11.30;99.90;;;;;;5053701;28;19916;-85
2022/10/03 02:17:02;;;;;;;;;;;11.30;99.90;;;;;;5051937;28;19948;-83
2022/10/03 02:19:28;;;;;;;;;;;11.30;99.90;;;;;;5058644;28;19948;-84
2022/10/03 02:21:55;;;;;;;;;;;11.20;99.90;;;;;;5057081;28;19912;-85
2022/10/03 02:24:21;;;;;;;;;;;11.10;99.90;;;;;;5053473;28;19905;-87
2022/10/03 02:26:58;;;;;;;;;;;11.10;99.90;;;;;;5052174;28;20311;-86
2022/10/03 02:29:30;;;;;;;;;;;11.00;99.90;;;;;;5051726;28;20008;-84
2022/10/03 02:32:26;;;;;;;;;;;11.00;99.90;;;;;;5051365;28;19905;-86
2022/10/03 02:35:01;;;;;;;;;;;10.90;99.90;;;;;;5051335;28;19921;-86
2022/10/03 02:37:26;;;;;;;;;;;10.90;99.90;;;;;;5052019;28;20447;-87
2022/10/03 02:39:59;;;;;;;;;;;10.80;99.90;;;;;;5049650;28;19905;-86
2022/10/03 02:42:49;;;;;;;;;;;10.70;99.90;;;;;;5053695;28;19932;-88
2022/10/03 02:45:21;;;;;;;;;;;10.70;99.90;;;;;;5051457;28;19904;-83
2022/10/03 02:47:52;;;;;;;;;;;10.60;99.90;;;;;;5052130;28;19904;-86
2022/10/03 02:50:27;;;;;;;;;;;10.60;99.90;;;;;;5051206;28;19911;-85
2022/10/03 02:53:05;;;;;;;;;;;10.50;99.90;;;;;;5051187;28;20404;-87
2022/10/03 02:55:37;;;;;;;;;;;10.50;99.90;;;;;;5051324;28;19909;-86
2022/10/03 02:58:26;;;;;;;;;;;10.40;99.90;;;;;;5049600;28;20258;-83
2022/10/03 03:01:04;;;;;;;;;;;10.40;99.90;;;;;;5050054;28;19928;-83
2022/10/03 03:03:48;;;;;;;;;;;10.30;99.90;;;;;;5053740;28;19904;-83
2022/10/03 03:06:13;;;;;;;;;;;10.30;99.90;;;;;;5054736;28;19909;-86
2022/10/03 03:09:08;;;;;;;;;;;10.20;99.90;;;;;;5054891;28;20047;-85
2022/10/03 03:11:40;;;;;;;;;;;10.20;99.90;;;;;;5041179;28;19999;-84
2022/10/03 03:14:15;;;;;;;;;;;10.20;99.90;;;;;;5054529;28;19923;-84
2022/10/03 03:16:49;;;;;;;;;;;10.20;99.90;;;;;;5054852;28;19905;-83
2022/10/03 03:19:20;;;;;;;;;;;10.20;99.90;;;;;;5054757;28;19905;-84
2022/10/03 03:21:49;;;;;;;;;;;10.20;99.90;;;;;;5054458;28;19916;-84
2022/10/03 03:24:27;;;;;;;;;;;10.20;99.90;;;;;;5053143;28;19994;-84
2022/10/03 03:27:11;;;;;;;;;;;10.20;99.90;;;;;;5055644;28;19915;-84
2022/10/03 03:29:52;;;;;;;;;;;10.20;99.90;;;;;;5054480;28;19905;-83
2022/10/03 03:32:27;;;;;;;;;;;10.30;99.90;;;;;;5054458;28;20568;-84
2022/10/03 03:35:08;;;;;;;;;;;10.30;99.90;;;;;;5054527;28;19916;-83
2022/10/03 03:37:53;;;;;;;;;;;10.20;99.90;;;;;;5055086;28;20340;-83
2022/10/03 03:40:31;;;;;;;;;;;10.20;99.90;;;;;;5055064;28;19905;-84
2022/10/03 03:43:22;;;;;;;;;;;10.20;99.90;;;;;;5056226;28;19909;-84
2022/10/03 03:45:57;;;;;;;;;;;10.20;99.90;;;;;;5053639;28;19905;-83
2022/10/03 03:48:37;;;;;;;;;;;10.20;99.90;;;;;;5054576;28;19911;-86
2022/10/03 03:51:05;;;;;;;;;;;10.20;99.90;;;;;;5051622;28;20284;-85
2022/10/03 03:53:43;;;;;;;;;;;10.10;99.90;;;;;;5017972;28;19917;-84
2022/10/03 03:56:16;;;;;;;;;;;10.10;99.90;;;;;;5017993;28;19905;-86
2022/10/03 03:59:00;;;;;;;;;;;10.00;99.90;;;;;;5035884;28;19905;-86
2022/10/03 04:01:45;;;;;;;;;;;10.00;99.90;;;;;;5035128;28;19905;-84
2022/10/03 04:04:30;;;;;;;;;;;10.00;99.90;;;;;;5016790;28;19955;-82
2022/10/03 04:07:28;;;;;;;;;;;10.00;99.90;;;;;;5034552;28;19913;-84
2022/10/03 04:10:13;;;;;;;;;;;9.90;99.90;;;;;;4974585;28;19905;-84
2022/10/03 04:12:52;;;;;;;;;;;9.90;99.90;;;;;;5017366;28;20437;-84
2022/10/03 04:15:37;;;;;;;;;;;9.90;99.90;;;;;;5017749;28;19913;-84
2022/10/03 04:20:52;;;;;;;;;;;9.90;99.90;;;;;;5035644;28;19912;-84
2022/10/03 04:23:29;;;;;;;;;;;9.90;99.90;;;;;;5035132;28;19909;-84
2022/10/03 04:26:14;;;;;;;;;;;9.90;99.90;;;;;;5017464;28;19908;-83
2022/10/03 04:28:40;;;;;;;;;;;9.90;99.90;;;;;;5034619;28;19999;-84
2022/10/03 04:31:14;;;;;;;;;;;9.90;99.90;;;;;;5017043;28;19951;-84
2022/10/03 04:33:49;;;;;;;;;;;9.90;99.90;;;;;;5016986;28;19940;-84
2022/10/03 04:36:29;;;;;;;;;;;9.90;99.90;;;;;;5016438;28;19912;-84
2022/10/03 04:38:55;;;;;;;;;;;9.80;99.90;;;;;;5016397;28;19909;-83
2022/10/03 04:41:37;;;;;;;;;;;9.70;99.90;;;;;;5016730;28;19912;-84
2022/10/03 04:44:22;;;;;;;;;;;9.80;99.90;;;;;;5016699;28;19916;-83
2022/10/03 04:47:04;;;;;;;;;;;9.70;99.90;;;;;;5016551;28;19944;-83
2022/10/03 04:49:34;;;;;;;;;;;9.70;99.90;;;;;;5033604;28;19909;-84
2022/10/03 04:52:02;;;;;;;;;;;9.70;99.90;;;;;;5033795;28;19928;-82
2022/10/03 04:54:31;;;;;;;;;;;9.70;99.90;;;;;;5033468;28;20427;-83
2022/10/03 04:57:15;;;;;;;;;;;9.70;99.90;;;;;;5033459;28;19909;-83
2022/10/03 04:59:53;;;;;;;;;;;9.70;99.90;;;;;;5015624;28;19909;-84
2022/10/03 05:02:32;;;;;;;;;;;9.70;99.90;;;;;;5015387;28;19905;-84
2022/10/03 05:04:57;;;;;;;;;;;9.70;99.90;;;;;;5014905;28;20504;-85
2022/10/03 05:07:25;;;;;;;;;;;9.70;99.90;;;;;;5033031;28;19916;-84
2022/10/03 05:09:53;;;;;;;;;;;9.70;99.90;;;;;;5032928;28;19992;-82
2022/10/03 05:12:41;;;;;;;;;;;9.80;99.90;;;;;;5016531;28;20333;-84
2022/10/03 05:15:09;;;;;;;;;;;9.80;99.90;;;;;;5016030;28;19916;-83
2022/10/03 05:17:39;;;;;;;;;;;9.80;99.90;;;;;;5016303;28;19905;-83
2022/10/03 05:20:08;;;;;;;;;;;9.70;99.90;;;;;;5016102;28;19932;-85
2022/10/03 05:22:33;;;;;;;;;;;9.80;99.90;;;;;;5016778;28;20405;-85
2022/10/03 05:25:08;;;;;;;;;;;9.80;99.90;;;;;;5015616;28;19944;-83
2022/10/03 05:27:45;;;;;;;;;;;9.80;99.90;;;;;;5023831;28;19915;-86
2022/10/03 05:30:17;;;;;;;;;;;9.90;99.90;;;;;;5016482;28;19909;-85
2022/10/03 05:33:09;;;;;;;;;;;9.90;99.90;;;;;;5034101;28;19916;-86
2022/10/03 05:35:47;;;;;;;;;;;10.00;99.90;;;;;;5014440;28;19913;-85
2022/10/03 05:38:22;;;;;;;;;;;10.10;99.90;;;;;;5016341;28;20006;-86
2022/10/03 05:41:03;;;;;;;;;;;10.20;99.90;;;;;;5016152;28;19913;-86
2022/10/03 05:43:43;;;;;;;;;;;10.30;99.90;;;;;;5016001;28;19912;-85
2022/10/03 05:46:21;;;;;;;;;;;10.50;99.90;;;;;;5016076;28;19956;-85
2022/10/03 05:48:49;;;;;;;;;;;10.60;99.90;;;;;;5016015;28;19912;-86
2022/10/03 05:51:17;;;;;;;;;;;10.70;99.90;;;;;;5016084;28;19924;-85
2022/10/03 05:54:01;;;;;;;;;;;10.80;99.90;;;;;;5016315;28;20062;-86
2022/10/03 05:56:36;;;;;;;;;;;11.00;99.90;;;;;;5015973;28;19905;-86
2022/10/03 05:59:20;;;;;;;;;;;11.10;99.90;;;;;;5016156;28;20392;-85
2022/10/03 06:01:48;;;;;;;;;;;11.20;99.90;;;;;;5015840;28;19984;-86
2022/10/03 06:04:20;;;;;;;;;;;11.40;99.90;;;;;;5013715;28;19905;-84
2022/10/03 06:07:04;;;;;;;;;;;11.60;99.90;;;;;;5014188;28;20509;-87
2022/10/03 06:09:39;;;;;;;;;;;11.70;99.90;;;;;;5015906;28;19915;-86
2022/10/03 06:12:19;;;;;;;;;;;11.90;99.90;;;;;;5015413;28;20444;-86
2022/10/03 06:15:03;;;;;;;;;;;12.30;99.90;;;;;;5015913;28;19913;-86
2022/10/03 06:17:43;;;;;;;;;;;12.60;99.90;;;;;;5015551;28;19996;-86
2022/10/03 06:20:26;;;;;;;;;;;13.10;99.90;;;;;;5015258;28;19912;-86
2022/10/03 06:23:06;;;;;;;;;;;13.60;99.90;;;;;;5015820;28;19905;-86
2022/10/03 06:25:41;;;;;;;;;;;14.20;99.90;;;;;;5015899;28;19908;-86
2022/10/03 06:28:13;;;;;;;;;;;14.90;99.90;;;;;;5015251;28;19948;-86
2022/10/03 06:30:44;;;;;;;;;;;15.50;99.90;;;;;;5032976;28;20004;-87
2022/10/03 06:33:27;;;;;;;;;;;16.30;99.90;;;;;;5015489;28;19905;-87
2022/10/03 06:36:11;;;;;;;;;;;17.00;99.90;;;;;;5015084;28;19905;-87
2022/10/03 06:38:49;;;;;;;;;;;17.60;99.90;;;;;;5015612;28;20449;-88
2022/10/03 06:41:24;;;;;;;;;;;18.00;99.90;;;;;;5015498;28;19909;-86
2022/10/03 06:44:00;;;;;;;;;;;18.50;99.90;;;;;;5015605;28;20016;-87
2022/10/03 06:46:25;;;;;;;;;;;18.90;99.90;;;;;;5023844;28;19908;-87
2022/10/03 06:49:06;;;;;;;;;;;19.20;99.90;;;;;;5018474;28;19905;-87
2022/10/03 06:51:50;;;;;;;;;;;19.50;99.90;;;;;;5032672;28;19928;-87
2022/10/03 06:54:35;;;;;;;;;;;19.90;99.90;;;;;;5032918;28;19917;-88
2022/10/03 06:57:03;;;;;;;;;;;20.40;99.40;;;;;;5033263;28;19905;-87
2022/10/03 06:59:40;;;;;;;;;;;20.60;98.80;;;;;;5033056;28;19912;-88
2022/10/03 07:02:15;;;;;;;;;;;20.80;98.40;;;;;;5015002;28;19909;-88
2022/10/03 07:04:46;;;;;;;;;;;21.10;97.00;;;;;;5014339;28;19905;-89
2022/10/03 07:07:31;;;;;;;;;;;21.10;96.00;;;;;;5015315;28;20043;-87
2022/10/03 07:09:59;;;;;;;;;;;21.00;95.60;;;;;;5015226;28;19905;-88
2022/10/03 07:12:30;;;;;;;;;;;20.80;96.20;;;;;;5015299;28;20362;-87
2022/10/03 07:15:04;;;;;;;;;;;20.40;96.60;;;;;;5014835;28;19916;-87
2022/10/03 07:17:37;;;;;;;;;;;20.20;96.80;;;;;;5015125;28;19951;-88
2022/10/03 07:20:03;;;;;;;;;;;19.90;97.50;;;;;;5015383;28;20365;-88
2022/10/03 07:22:31;;;;;;;;;;;19.50;97.70;;;;;;5015361;28;19912;-88
2022/10/03 07:25:18;;;;;;;;;;;19.20;98.40;;;;;;5015075;28;19909;-88
2022/10/03 07:27:43;;;;;;;;;;;18.90;99.30;;;;;;5033072;28;19921;-87
2022/10/03 07:30:21;;;;;;;;;;;18.90;99.30;;;;;;5015249;28;19909;-88
2022/10/03 07:32:55;;;;;;;;;;;18.90;99.70;;;;;;5013758;28;19912;-88
2022/10/03 07:38:58;;;;;;;;;;;18.80;99.70;;;;;;5032523;28;20381;-88
2022/10/03 07:41:36;;;;;;;;;;;18.60;99.90;;;;;;5014844;28;19905;-87
2022/10/03 07:44:07;;;;;;;;;;;18.60;99.90;;;;;;5015119;28;20281;-88
2022/10/03 07:46:51;;;;;;;;;;;18.50;99.90;;;;;;5014921;28;20003;-88
2022/10/03 07:49:37;;;;;;;;;;;18.40;99.90;;;;;;5035968;28;19913;-88
2022/10/03 07:52:41;;;;;;;;;;;18.30;99.90;;;;;;5034788;28;20768;-89
2022/10/03 07:55:07;;;;;;;;;;;18.10;99.90;;;;;;5034063;28;19913;-89
2022/10/03 07:57:51;;;;;;;;;;;18.10;99.90;;;;;;5017746;28;20019;-88
2022/10/03 08:00:21;;;;;;;;;;;18.00;99.90;;;;;;5038521;28;20375;-88
2022/10/03 08:02:50;;;;;;;;;;;18.20;99.90;;;;;;5054745;28;19911;-88
2022/10/03 08:05:28;;;;;;;;;;;18.70;99.90;;;;;;5060774;28;19912;-88
2022/10/03 08:08:09;;;;;;;;;;;19.30;98.60;;;;;;5064052;28;19988;-89
2022/10/03 08:10:37;;;;;;;;;;;20.00;97.00;;;;;;5055119;28;19905;-89
2022/10/03 08:13:08;;;;;;;;;;;20.70;96.00;;;;;;5055918;28;19952;-88
2022/10/03 08:15:43;;;;;;;;;;;21.30;94.30;;;;;;5055888;28;19947;-89
2022/10/03 08:18:27;;;;;;;;;;;21.80;92.80;;;;;;5068492;28;19940;-89
2022/10/03 08:21:00;;;;;;;;;;;21.70;92.00;;;;;;5054148;28;19934;-88
2022/10/03 08:23:29;;;;;;;;;;;21.40;91.40;;;;;;5054217;28;19909;-88
2022/10/03 08:26:11;;;;;;;;;;;21.20;91.50;;;;;;5054123;28;20352;-89
2022/10/03 08:28:55;;;;;;;;;;;21.20;90.90;;;;;;5054372;28;19904;-89
2022/10/03 08:31:33;;;;;;;;;;;20.90;91.10;;;;;;5054414;28;20042;-89
2022/10/03 08:34:17;;;;;;;;;;;21.20;90.80;;;;;;5054284;28;19956;-89
2022/10/03 08:37:01;;;;;;;;;;;21.90;90.00;;;;;;5054226;28;20003;-88
2022/10/03 08:39:36;;;;;;;;;;;22.40;86.90;;;;;;5054037;28;19937;-88
2022/10/03 08:42:01;;;;;;;;;;;22.00;85.60;;;;;;5054356;28;19999;-89
2022/10/03 08:44:27;;;;;;;;;;;21.20;86.80;;;;;;5054025;28;19947;-89
2022/10/03 08:46:58;;;;;;;;;;;20.70;90.10;;;;;;5053928;28;20012;-88
2022/10/03 08:49:43;;;;;;;;;;;20.30;90.70;;;;;;5053873;28;19905;-89
2022/10/03 08:52:27;;;;;;;;;;;20.30;91.40;;;;;;5053013;28;19927;-89
2022/10/03 08:54:56;;;;;;;;;;;20.30;90.60;;;;;;5053311;28;19940;-88
2022/10/03 08:57:37;;;;;;;;;;;20.40;91.20;;;;;;5053872;28;19974;-88
2022/10/03 09:00:18;;;;;;;;;;;20.00;91.70;;;;;;5054011;28;19959;-88
2022/10/03 09:02:55;;;;;;;;;;;20.10;92.50;;;;;;5053738;28;20281;-88
2022/10/03 09:05:44;;;;;;;;;;;20.20;91.90;;;;;;5053613;28;20269;-89
2022/10/03 09:08:09;;;;;;;;;;;20.30;91.70;;;;;;5053015;28;19982;-88
2022/10/03 09:10:53;;;;;;;;;;;20.20;91.10;;;;;;5053523;28;20478;-89
2022/10/03 09:13:48;;;;;;;;;;;19.90;91.20;;;;;;5053076;28;19904;-88
2022/10/03 09:16:32;;;;;;;;;;;19.40;92.70;;;;;;5054478;28;20435;-89
2022/10/03 09:19:10;;;;;;;;;;;19.70;92.70;;;;;;5053647;28;19905;-88
2022/10/03 09:21:41;;;;;;;;;;;20.70;91.80;;;;;;5053209;28;19909;-87
2022/10/03 09:24:07;;;;;;;;;;;20.90;90.30;;;;;;5053142;28;19905;-88
2022/10/03 09:26:35;;;;;;;;;;;21.00;89.90;;;;;;5053104;28;20249;-87
2022/10/03 09:29:01;;;;;;;;;;;20.90;88.70;;;;;;5053184;28;19936;-88
2022/10/03 09:31:26;;;;;;;;;;;20.40;90.40;;;;;;5053350;28;19908;-88
2022/10/03 09:33:55;;;;;;;;;;;20.20;91.20;;;;;;5052787;28;19919;-88
2022/10/03 09:36:39;;;;;;;;;;;20.70;91.00;;;;;;5053924;28;19962;-88
2022/10/03 09:39:13;;;;;;;;;;;21.40;90.00;;;;;;5052684;28;20293;-87
2022/10/03 09:41:53;;;;;;;;;;;21.80;88.70;;;;;;5052435;28;19954;-88
2022/10/03 09:44:29;;;;;;;;;;;21.90;84.40;;;;;;5052664;28;19919;-88
2022/10/03 09:47:22;;;;;;;;;;;21.80;86.00;;;;;;5053679;28;20292;-88
2022/10/03 09:49:58;;;;;;;;;;;22.00;85.60;;;;;;5058249;28;19908;-88
2022/10/03 09:52:44;;;;;;;;;;;22.20;82.20;;;;;;5052019;28;20382;-88
2022/10/03 09:55:22;;;;;;;;;;;22.10;83.90;;;;;;5035934;28;19940;-86
2022/10/03 09:57:57;;;;;;;;;;;21.90;83.60;;;;;;5051454;28;20001;-87
2022/10/03 10:00:26;;;;;;;;;;;21.60;85.30;;;;;;5050048;28;19908;-88
2022/10/03 10:03:10;;;;;;;;;;;21.20;84.00;;;;;;5051898;28;19908;-86
2022/10/03 10:05:36;;;;;;;;;;;21.40;84.60;;;;;;5052058;28;19915;-87
2022/10/03 10:08:20;;;;;;;;;;;21.60;85.50;;;;;;5052116;28;19905;-88
2022/10/03 10:10:56;;;;;;;;;;;21.80;85.30;;;;;;5051614;28;19909;-88
2022/10/03 10:13:24;;;;;;;;;;;22.40;81.60;;;;;;5052004;28;19905;-88
2022/10/03 10:15:55;;;;;;;;;;;22.60;77.70;;;;;;5053282;28;19909;-88
2022/10/03 10:18:30;;;;;;;;;;;22.40;78.90;;;;;;5051942;28;19908;-88
2022/10/03 10:21:19;;;;;;;;;;;22.60;77.60;;;;;;5051772;28;19962;-86
2022/10/03 10:23:45;;;;;;;;;;;22.60;74.20;;;;;;5051630;28;19967;-88
2022/10/03 10:26:29;;;;;;;;;;;22.00;76.90;;;;;;5051604;28;19905;-89
2022/10/03 10:28:55;;;;;;;;;;;21.60;75.90;;;;;;5051715;28;20366;-86
2022/10/03 10:31:39;;;;;;;;;;;21.10;77.30;;;;;;5051578;28;20319;-87
2022/10/03 10:34:10;;;;;;;;;;;20.60;78.40;;;;;;5051662;28;19919;-88
2022/10/03 10:37:09;;;;;;;;;;;20.40;79.40;;;;;;5051698;28;19955;-88
2022/10/03 10:39:54;;;;;;;;;;;20.10;76.90;;;;;;5051892;28;19967;-87
2022/10/03 10:42:26;;;;;;;;;;;19.80;79.60;;;;;;5049794;28;19912;-86
2022/10/03 10:44:52;;;;;;;;;;;19.70;78.40;;;;;;5051375;28;20155;-87
2022/10/03 10:47:37;;;;;;;;;;;19.40;80.50;;;;;;5052313;28;19904;-88
2022/10/03 10:50:02;;;;;;;;;;;19.30;80.70;;;;;;5051821;28;19951;-88
2022/10/03 10:52:28;;;;;;;;;;;19.30;78.60;;;;;;5051396;28;19916;-88
2022/10/03 10:55:05;;;;;;;;;;;19.30;79.60;;;;;;5051219;28;19921;-87
2022/10/03 10:57:50;;;;;;;;;;;19.20;78.90;;;;;;5052594;28;19955;-87
2022/10/03 11:00:15;;;;;;;;;;;19.00;79.40;;;;;;5054861;28;20619;-88
2022/10/03 11:02:58;;;;;;;;;;;18.90;81.80;;;;;;5052345;28;19905;-87
2022/10/03 11:05:42;;;;;;;;;;;18.90;83.10;;;;;;5051639;28;19912;-88
2022/10/03 11:08:11;;;;;;;;;;;18.90;83.50;;;;;;5052396;28;19909;-87
2022/10/03 11:10:55;;;;;;;;;;;18.90;81.00;;;;;;5051747;28;19912;-88
2022/10/03 11:13:42;;;;;;;;;;;18.90;83.30;;;;;;5051388;28;20011;-85
2022/10/03 11:16:26;;;;;;;;;;;18.80;82.30;;;;;;5051680;28;20677;-87
2022/10/03 11:19:10;;;;;;;;;;;18.80;81.20;;;;;;5052371;28;19999;-87
2022/10/03 11:21:45;;;;;;;;;;;18.80;84.60;;;;;;5051502;28;19913;-87
2022/10/03 11:24:29;;;;;;;;;;;19.00;82.30;;;;;;5054852;28;19911;-86
2022/10/03 11:27:21;;;;;;;;;;;18.90;80.50;;;;;;5055228;28;19959;-87
2022/10/03 11:29:49;;;;;;;;;;;18.90;81.10;;;;;;5054143;28;19909;-86
2022/10/03 11:32:15;;;;;;;;;;;18.70;81.40;;;;;;5055181;28;19940;-88
2022/10/03 11:35:04;;;;;;;;;;;18.70;82.10;;;;;;5054938;28;19935;-87
2022/10/03 11:37:29;;;;;;;;;;;18.70;82.20;;;;;;5056999;28;19994;-87
2022/10/03 11:40:04;;;;;;;;;;;18.70;83.70;;;;;;5055140;28;19920;-88
2022/10/03 11:42:32;;;;;;;;;;;18.60;83.50;;;;;;5055418;28;19916;-87
2022/10/03 11:44:59;;;;;;;;;;;18.40;85.00;;;;;;5056227;28;19904;-88
2022/10/03 11:47:28;;;;;;;;;;;18.20;84.80;;;;;;5054667;28;19904;-87
2022/10/03 11:49:56;;;;;;;;;;;18.20;85.20;;;;;;5054865;28;19950;-87
2022/10/03 11:52:40;;;;;;;;;;;18.10;84.80;;;;;;5054857;28;20015;-88
2022/10/03 11:55:23;;;;;;;;;;;18.10;85.80;;;;;;5054503;28;19940;-87
2022/10/03 11:58:02;;;;;;;;;;;18.10;85.50;;;;;;5054724;28;19912;-87
2022/10/03 12:00:32;;;;;;;;;;;18.10;87.10;;;;;;5054582;28;19908;-87
2022/10/03 12:03:20;;;;;;;;;;;18.20;87.60;;;;;;5054901;28;19909;-86
2022/10/03 12:05:51;;;;;;;;;;;18.50;88.60;;;;;;5054245;28;20395;-87
2022/10/03 12:11:18;;;;;;;;;;;18.80;91.00;;;;;;5055984;28;20279;-87
2022/10/03 12:14:02;;;;;;;;;;;18.70;90.80;;;;;;5055826;28;19912;-86
2022/10/03 12:16:39;;;;;;;;;;;18.40;90.80;;;;;;5055593;28;19921;-86
2022/10/03 12:19:29;;;;;;;;;;;18.10;91.60;;;;;;5055676;28;19912;-86
2022/10/03 12:21:58;;;;;;;;;;;17.90;91.60;;;;;;5053985;28;20057;-87
2022/10/03 12:24:25;;;;;;;;;;;17.80;92.20;;;;;;5053488;28;19908;-87
2022/10/03 12:27:05;;;;;;;;;;;17.70;92.70;;;;;;5052251;28;19909;-87
2022/10/03 12:29:34;;;;;;;;;;;17.60;93.50;;;;;;5053042;28;20003;-86
2022/10/03 12:32:19;;;;;;;;;;;17.40;94.50;;;;;;5053946;28;20603;-87
2022/10/03 12:34:48;;;;;;;;;;;17.50;95.90;;;;;;5053654;28;20468;-86
2022/10/03 12:37:17;;;;;;;;;;;17.70;96.20;;;;;;5054495;28;19912;-87
2022/10/03 12:40:09;;;;;;;;;;;17.80;95.20;;;;;;5053991;28;19905;-87
2022/10/03 12:42:42;;;;;;;;;;;17.80;93.00;;;;;;5045884;28;19928;-88
2022/10/03 12:45:20;;;;;;;;;;;17.70;93.10;;;;;;5054800;28;19944;-87
2022/10/03 12:48:04;;;;;;;;;;;17.70;93.30;;;;;;5053478;28;19909;-85
2022/10/03 12:50:32;;;;;;;;;;;17.60;94.10;;;;;;5056733;28;19905;-87
2022/10/03 12:53:09;;;;;;;;;;;17.40;94.50;;;;;;5051659;28;20011;-87
2022/10/03 12:55:36;;;;;;;;;;;17.20;95.20;;;;;;5055120;28;19920;-87
2022/10/03 12:58:02;;;;;;;;;;;17.00;95.50;;;;;;5054497;28;19927;-88
2022/10/03 13:00:32;;;;;;;;;;;16.80;96.30;;;;;;5053710;28;20360;-87
2022/10/03 13:02:58;;;;;;;;;;;16.50;97.90;;;;;;5053695;28;20277;-86
2022/10/03 13:05:35;;;;;;;;;;;16.40;99.60;;;;;;5053700;28;19905;-87
2022/10/03 13:08:05;;;;;;;;;;;16.40;99.90;;;;;;5054616;28;19905;-88
2022/10/03 13:10:31;;;;;;;;;;;16.50;99.90;;;;;;5053176;28;19912;-86
2022/10/03 13:12:59;;;;;;;;;;;16.70;99.90;;;;;;5053105;28;19905;-87
2022/10/03 13:15:44;;;;;;;;;;;16.80;99.90;;;;;;5053351;28;20016;-87
2022/10/03 13:18:09;;;;;;;;;;;16.80;99.90;;;;;;5053272;28;19958;-88
2022/10/03 13:20:44;;;;;;;;;;;16.90;99.90;;;;;;5053198;28;19912;-88
2022/10/03 13:23:09;;;;;;;;;;;16.90;99.90;;;;;;5053108;28;19912;-89
2022/10/03 13:25:59;;;;;;;;;;;16.90;99.70;;;;;;5053367;28;20112;-88
2022/10/03 13:28:32;;;;;;;;;;;16.90;99.40;;;;;;5053260;28;19904;-88
2022/10/03 13:31:02;;;;;;;;;;;16.90;99.60;;;;;;5052861;28;19905;-88
2022/10/03 13:33:31;;;;;;;;;;;17.00;99.90;;;;;;5052787;28;19992;-88
2022/10/03 13:36:01;;;;;;;;;;;16.80;99.50;;;;;;5052559;28;19995;-87
2022/10/03 13:38:44;;;;;;;;;;;16.80;99.50;;;;;;5053968;28;19976;-87
2022/10/03 13:41:29;;;;;;;;;;;16.80;99.70;;;;;;5053182;28;20348;-88
2022/10/03 13:43:59;;;;;;;;;;;16.80;99.90;;;;;;5053208;28;19905;-86
2022/10/03 13:46:28;;;;;;;;;;;16.70;99.90;;;;;;5052200;28;20263;-84
2022/10/03 13:48:57;;;;;;;;;;;16.70;99.90;;;;;;5052624;28;20274;-86
2022/10/03 13:51:43;;;;;;;;;;;16.80;99.90;;;;;;5053159;28;19924;-86
2022/10/03 13:54:14;;;;;;;;;;;16.80;99.90;;;;;;5052532;28;19916;-86
2022/10/03 13:56:50;;;;;;;;;;;16.80;99.90;;;;;;5052208;28;19908;-87
2022/10/03 13:59:35;;;;;;;;;;;16.80;99.90;;;;;;5052171;28;19961;-87
2022/10/03 14:02:19;;;;;;;;;;;17.00;99.90;;;;;;5052095;28;19988;-86
2022/10/03 14:05:01;;;;;;;;;;;17.10;99.90;;;;;;5052387;28;20011;-86
2022/10/03 14:07:45;;;;;;;;;;;17.20;99.90;;;;;;5052101;28;20316;-87
2022/10/03 14:10:17;;;;;;;;;;;17.30;99.50;;;;;;5052125;28;20369;-87
2022/10/03 14:12:43;;;;;;;;;;;17.40;99.20;;;;;;5051707;28;20010;-86
2022/10/03 14:15:30;;;;;;;;;;;17.50;99.00;;;;;;5051886;28;20377;-86
2022/10/03 14:17:55;;;;;;;;;;;17.40;99.30;;;;;;5051633;28;19947;-87
2022/10/03 14:20:24;;;;;;;;;;;17.20;99.60;;;;;;5051911;28;19909;-86
2022/10/03 14:23:13;;;;;;;;;;;17.00;99.20;;;;;;5050783;28;19905;-87
2022/10/03 14:25:41;;;;;;;;;;;16.80;98.90;;;;;;5052685;28;19904;-87
2022/10/03 14:28:13;;;;;;;;;;;16.50;99.90;;;;;;5052450;28;19904;-88
2022/10/03 14:31:01;;;;;;;;;;;16.40;99.90;;;;;;5051745;28;19944;-87
2022/10/03 14:33:32;;;;;;;;;;;16.20;99.90;;;;;;5042453;28;19916;-87
2022/10/03 14:36:17;;;;;;;;;;;15.90;99.90;;;;;;5051470;28;19905;-87
2022/10/03 14:38:59;;;;;;;;;;;15.80;99.90;;;;;;5052008;28;19905;-87
2022/10/03 14:41:31;;;;;;;;;;;15.70;99.90;;;;;;5051150;28;19905;-86
2022/10/03 14:44:04;;;;;;;;;;;15.50;99.90;;;;;;5051487;28;19955;-87
2022/10/03 14:46:32;;;;;;;;;;;15.40;99.90;;;;;;5052849;28;19916;-87
2022/10/03 14:49:02;;;;;;;;;;;15.30;99.90;;;;;;5052082;28;19911;-87
2022/10/03 14:51:33;;;;;;;;;;;15.20;99.90;;;;;;5049215;28;19920;-88
2022/10/03 14:54:01;;;;;;;;;;;15.10;99.90;;;;;;5052189;28;20019;-86
2022/10/03 14:56:28;;;;;;;;;;;15.00;99.90;;;;;;5054786;28;19909;-87
2022/10/03 14:58:54;;;;;;;;;;;14.90;99.90;;;;;;5057997;28;19908;-86
2022/10/03 15:01:22;;;;;;;;;;;14.90;99.90;;;;;;5057877;28;20000;-88
2022/10/03 15:03:56;;;;;;;;;;;14.90;99.90;;;;;;5059353;28;19905;-87
2022/10/03 15:06:47;;;;;;;;;;;14.90;99.90;;;;;;5057924;28;19905;-86
2022/10/03 15:09:15;;;;;;;;;;;14.90;99.90;;;;;;5058243;28;19909;-86
2022/10/03 15:11:51;;;;;;;;;;;15.00;99.90;;;;;;5059056;28;19927;-85
2022/10/03 15:14:17;;;;;;;;;;;15.10;99.90;;;;;;5057808;28;20391;-87
2022/10/03 15:16:53;;;;;;;;;;;15.10;99.90;;;;;;5058186;28;20307;-87
2022/10/03 15:19:24;;;;;;;;;;;15.20;99.90;;;;;;5058047;28;19912;-87